Time;durP1;ratioP1;P1;durP2;ratioP2;P2;SDS_P1;SDS_P2;PMS_P1;PMS_P2;Temp;Humidity;BMP_temperature;BMP_pressure;BME280_temperature;BME280_humidity;BME280_pressure;Samples;Min_cycle;Max_cycle;Signal;HPM_P1;HPM_P2
2022/01/20 00:00:29;;;;;;;14.25;5.25;;;;;;;-4.26;80.11;98577.41;4759035;29;20413;-71
2022/01/20 00:03:00;;;;;;;9.73;5.22;;;;;;;-4.21;81.20;98583.34;4805863;29;20056;-78
2022/01/20 00:26:54;;;;;;;6.80;4.47;;;;;;;-4.18;81.21;98560.69;4808912;29;20102;-72
2022/01/20 00:29:26;;;;;;;9.60;4.20;;;;;;;-4.13;80.67;98561.41;4777407;29;20046;-73
2022/01/20 00:32:10;;;;;;;8.90;4.57;;;;;;;-4.10;81.20;98565.66;4777817;29;20054;-68
2022/01/20 00:35:21;;;;;;;13.15;6.07;;;;;;;-4.17;80.63;98557.16;4762305;29;20045;-68
2022/01/20 00:37:26;;;;;;;7.63;4.85;;;;;;;-4.14;81.32;98564.88;4767631;29;20054;-72
2022/01/20 00:39:51;;;;;;;8.38;5.18;;;;;;;-4.14;81.06;98554.47;4762654;29;20057;-71
2022/01/20 00:42:16;;;;;;;11.35;5.28;;;;;;;-4.08;80.76;98559.53;4777191;29;20045;-71
2022/01/20 00:44:43;;;;;;;10.05;5.28;;;;;;;-4.11;81.13;98558.75;4791985;29;20046;-72
2022/01/20 00:47:07;;;;;;;10.25;6.30;;;;;;;-4.24;81.20;98550.44;4776644;29;20125;-71
2022/01/20 00:49:32;;;;;;;6.60;4.55;;;;;;;-4.04;82.10;98553.31;4777043;29;20049;-73
2022/01/20 00:51:57;;;;;;;7.78;4.47;;;;;;;-4.22;81.07;98543.47;4794169;29;20137;-74
2022/01/20 00:54:22;;;;;;;7.95;4.25;;;;;;;-4.07;81.70;98536.94;4777252;29;20030;-74
2022/01/20 00:56:47;;;;;;;10.90;4.85;;;;;;;-4.22;81.82;98534.81;4792344;29;20046;-72
2022/01/20 00:59:12;;;;;;;8.02;4.65;;;;;;;-4.13;82.23;98529.31;4810465;29;20497;-72
2022/01/20 01:01:37;;;;;;;9.55;5.22;;;;;;;-4.02;81.87;98533.28;4762085;29;20528;-72
2022/01/20 01:04:02;;;;;;;10.80;5.75;;;;;;;-4.18;81.15;98521.66;4792055;29;20097;-75
2022/01/20 01:09:10;;;;;;;8.15;5.05;;;;;;;-4.10;81.20;98519.66;4791602;29;20587;-78
2022/01/20 01:11:36;;;;;;;9.80;4.65;;;;;;;-4.09;81.46;98505.75;4763935;29;20505;-73
2022/01/20 01:14:03;;;;;;;8.32;4.93;;;;;;;-4.06;81.72;98513.44;4792790;29;20038;-72
2022/01/20 01:16:41;;;;;;;6.15;4.20;;;;;;;-4.05;82.15;98522.97;4777813;29;20367;-74
2022/01/20 01:22:04;;;;;;;9.02;4.78;;;;;;;-3.99;82.01;98500.25;4793356;29;20413;-73
2022/01/20 01:24:29;;;;;;;10.85;4.90;;;;;;;-4.05;81.68;98496.94;4776995;29;20460;-74
2022/01/20 01:26:53;;;;;;;6.78;4.82;;;;;;;-3.94;82.23;98495.75;4791706;29;20050;-71
2022/01/20 01:29:59;;;;;;;7.95;3.90;;;;;;;-3.96;82.01;98495.81;4791450;29;20622;-74
2022/01/20 01:32:08;;;;;;;11.55;6.50;;;;;;;-4.02;81.66;98496.84;4774875;29;20045;-72
2022/01/20 01:34:36;;;;;;;6.82;4.60;;;;;;;-4.07;81.70;98496.16;4793925;29;20068;-75
2022/01/20 01:39:25;;;;;;;10.63;5.80;;;;;;;-3.99;81.24;98505.47;4792546;29;20110;-73
2022/01/20 01:41:53;;;;;;;8.18;5.30;;;;;;;-3.98;81.75;98496.75;4762400;29;20060;-71
2022/01/20 01:44:24;;;;;;;8.57;4.57;;;;;;;-3.95;81.78;98497.50;4810197;29;20046;-70
2022/01/20 01:46:51;;;;;;;9.73;5.13;;;;;;;-3.95;81.31;98501.88;4793179;29;20054;-71
2022/01/20 01:49:18;;;;;;;10.75;6.32;;;;;;;-4.03;81.32;98500.34;4793279;29;20054;-72
2022/01/20 01:51:42;;;;;;;8.05;5.00;;;;;;;-4.14;81.75;98496.38;4792692;29;20140;-71
2022/01/20 01:54:11;;;;;;;8.23;4.13;;;;;;;-3.93;81.89;98494.84;4792911;29;20486;-72
2022/01/20 01:56:36;;;;;;;8.68;5.45;;;;;;;-4.04;81.98;98483.03;4778026;29;20041;-75
2022/01/20 01:59:04;;;;;;;8.15;4.40;;;;;;;-3.99;81.92;98492.47;4778134;29;20045;-73
2022/01/20 02:01:51;;;;;;;9.35;4.70;;;;;;;-3.97;82.14;98482.84;4809027;29;20059;-74
2022/01/20 02:04:20;;;;;;;7.57;3.90;;;;;;;-3.78;82.32;98483.97;4791096;29;20053;-71
2022/01/20 02:09:37;;;;;;;8.90;5.50;;;;;;;-4.01;81.73;98479.47;4775387;29;20108;-71
2022/01/20 02:17:59;;;;;;;8.98;4.75;;;;;;;-4.07;81.60;98477.94;4790350;29;20054;-70
2022/01/20 02:20:26;;;;;;;8.45;5.90;;;;;;;-4.08;81.64;98471.03;4790509;29;20081;-71
2022/01/20 02:22:55;;;;;;;12.57;7.13;;;;;;;-4.08;81.88;98471.03;4790260;29;20505;-70
2022/01/20 02:25:33;;;;;;;8.45;5.03;;;;;;;-3.99;82.09;98458.63;4790464;29;20059;-75
2022/01/20 02:28:00;;;;;;;12.27;6.65;;;;;;;-4.03;82.45;98448.28;4781152;29;20051;-72
2022/01/20 02:30:27;;;;;;;8.15;5.50;;;;;;;-3.97;82.01;98442.06;4772356;29;20088;-70
2022/01/20 02:33:16;;;;;;;8.55;6.00;;;;;;;-3.81;82.49;98437.19;4772775;29;20100;-72
2022/01/20 02:35:45;;;;;;;11.40;5.85;;;;;;;-4.00;82.34;98415.25;4789296;29;20580;-70
2022/01/20 02:46:04;;;;;;;13.48;5.80;;;;;;;-3.99;82.69;98429.97;4772562;29;20161;-73
2022/01/20 02:48:29;;;;;;;9.38;4.70;;;;;;;-3.94;82.04;98421.09;4771873;29;20150;-71
2022/01/20 02:50:55;;;;;;;10.18;5.80;;;;;;;-4.05;82.56;98431.88;4786978;29;20136;-69
2022/01/20 02:53:20;;;;;;;14.57;7.72;;;;;;;-4.09;82.80;98419.88;4787179;29;20578;-70
2022/01/20 02:55:44;;;;;;;10.60;6.85;;;;;;;-4.12;82.32;98421.72;4787483;29;20077;-72
2022/01/20 02:58:09;;;;;;;11.35;6.32;;;;;;;-3.98;83.43;98409.13;4789369;29;20061;-71
2022/01/20 03:00:35;;;;;;;11.45;4.97;;;;;;;-3.92;82.97;98398.50;4787427;29;20061;-72
2022/01/20 03:03:01;;;;;;;8.02;5.55;;;;;;;-3.81;82.94;98398.97;4788309;29;20054;-70
2022/01/20 03:05:26;;;;;;;11.20;5.82;;;;;;;-3.82;82.60;98401.63;4788279;29;20604;-74
2022/01/20 03:08:00;;;;;;;9.15;5.75;;;;;;;-3.83;82.80;98410.34;4772561;29;20041;-70
2022/01/20 03:10:26;;;;;;;11.60;6.47;;;;;;;-3.89;82.66;98402.75;4772119;29;20141;-73
2022/01/20 03:12:51;;;;;;;9.70;5.90;;;;;;;-3.94;82.74;98410.69;4787360;29;20446;-73
2022/01/20 03:15:16;;;;;;;11.20;5.80;;;;;;;-3.84;82.64;98408.66;4786839;29;20537;-73
2022/01/20 03:17:41;;;;;;;9.60;6.00;;;;;;;-3.72;83.01;98403.00;4788004;29;20134;-73
2022/01/20 03:20:07;;;;;;;6.70;3.72;;;;;;;-3.75;82.92;98406.59;4772887;29;20054;-74
2022/01/20 03:22:32;;;;;;;13.30;6.18;;;;;;;-3.74;82.54;98399.63;4787509;29;20510;-73
2022/01/20 03:24:58;;;;;;;9.93;5.30;;;;;;;-3.74;82.91;98400.50;4769169;29;20590;-72
2022/01/20 03:27:23;;;;;;;11.27;5.72;;;;;;;-3.87;82.71;98401.81;4749683;29;20050;-74
2022/01/20 03:29:47;;;;;;;10.90;6.05;;;;;;;-3.84;82.56;98391.28;4771341;29;20064;-68
2022/01/20 03:32:13;;;;;;;12.05;6.43;;;;;;;-3.83;82.97;98392.13;4787616;29;20050;-67
2022/01/20 03:34:38;;;;;;;13.18;6.75;;;;;;;-3.83;83.02;98402.53;4787789;29;20054;-64
2022/01/20 03:37:09;;;;;;;10.43;5.82;;;;;;;-3.89;82.96;98389.72;4771180;29;20057;-63
2022/01/20 03:39:46;;;;;;;12.60;6.80;;;;;;;-3.99;82.85;98376.19;4771265;29;20058;-63
2022/01/20 03:42:11;;;;;;;12.95;7.78;;;;;;;-4.01;82.51;98372.78;4774389;29;20531;-64
2022/01/20 03:44:36;;;;;;;10.52;6.53;;;;;;;-3.98;83.13;98377.88;4774959;29;20046;-65
2022/01/20 03:47:02;;;;;;;11.85;5.95;;;;;;;-3.88;83.15;98374.06;4774647;29;20054;-65
2022/01/20 03:49:40;;;;;;;11.45;7.10;;;;;;;-3.83;83.36;98371.28;4774613;29;20582;-65
2022/01/20 03:52:06;;;;;;;12.75;6.95;;;;;;;-3.93;83.83;98375.09;4778899;29;20046;-66
2022/01/20 03:54:32;;;;;;;12.48;6.80;;;;;;;-4.18;83.54;98383.75;4782809;29;20058;-66
2022/01/20 03:57:15;;;;;;;14.82;7.97;;;;;;;-4.08;83.75;98373.88;4798591;29;20516;-65
2022/01/20 03:59:49;;;;;;;9.40;5.87;;;;;;;-4.12;84.08;98372.28;4796996;29;20046;-65
2022/01/20 04:02:19;;;;;;;16.25;7.38;;;;;;;-4.06;84.06;98380.72;4781032;29;20050;-65
2022/01/20 04:04:49;;;;;;;13.95;6.88;;;;;;;-4.09;83.97;98378.25;4782404;29;20049;-66
2022/01/20 04:07:19;;;;;;;9.10;5.05;;;;;;;-3.99;83.82;98378.78;4783151;29;20057;-66
2022/01/20 11:32:33;;;;;;;13.93;8.25;;;;;;;-3.31;83.75;98078.50;4695414;30;19992;-63
2022/01/20 11:35:11;;;;;;;11.85;6.03;;;;;;;-2.89;83.42;98080.22;4697219;30;20483;-65
2022/01/20 11:37:41;;;;;;;11.15;6.68;;;;;;;-3.06;83.50;98083.53;4698406;30;20071;-64
2022/01/20 11:40:09;;;;;;;12.23;6.45;;;;;;;-2.96;83.22;98075.28;4697232;30;20056;-64
2022/01/20 11:42:36;;;;;;;12.02;6.40;;;;;;;-3.17;83.68;98064.91;4698910;30;20879;-63
2022/01/20 11:45:20;;;;;;;11.88;6.10;;;;;;;-3.12;84.00;98075.97;4698474;30;20048;-64
2022/01/20 11:47:48;;;;;;;11.88;6.97;;;;;;;-3.12;83.63;98084.63;4698335;30;20535;-64
2022/01/20 11:50:18;;;;;;;8.60;5.20;;;;;;;-2.96;83.67;98057.03;4698095;30;20056;-62
2022/01/20 11:52:42;;;;;;;18.30;6.70;;;;;;;-3.03;83.97;98052.97;4698715;30;20048;-64
2022/01/20 11:55:13;;;;;;;13.75;6.55;;;;;;;-3.24;83.62;98064.28;4698350;30;20159;-62
2022/01/20 11:57:41;;;;;;;8.52;5.03;;;;;;;-2.95;84.38;98069.16;4711357;30;20139;-63
2022/01/20 12:00:23;;;;;;;14.13;8.57;;;;;;;-3.04;83.49;98066.06;4698588;30;20102;-65
2022/01/20 12:02:48;;;;;;;15.18;7.90;;;;;;;-3.13;83.99;98056.03;4683739;30;20055;-67
2022/01/20 12:05:27;;;;;;;;;;;;;;;-2.96;83.50;98061.38;4734846;30;20451;-67
2022/01/20 12:08:18;;;;;;;15.35;7.82;;;;;;;-3.04;82.82;98064.28;4713874;30;19922;-67
2022/01/20 12:10:45;;;;;;;15.00;8.18;;;;;;;-3.14;82.89;98060.38;4706700;30;20143;-64
2022/01/20 12:13:13;;;;;;;13.40;7.07;;;;;;;-3.23;83.39;98067.75;4729893;30;20049;-67
2022/01/20 12:15:58;;;;;;;10.40;6.35;;;;;;;-3.01;83.61;98078.97;4739283;30;20099;-68
2022/01/20 12:18:25;;;;;;;12.30;6.25;;;;;;;-3.04;83.55;98063.44;4743818;30;20416;-66
2022/01/20 12:20:54;;;;;;;7.25;4.18;;;;;;;-2.97;83.66;98065.75;4706435;30;20052;-66
2022/01/20 12:23:20;;;;;;;13.98;9.25;;;;;;;-3.17;82.78;98052.72;4703393;30;20072;-68
2022/01/20 12:25:47;;;;;;;9.77;5.95;;;;;;;-3.09;83.86;98049.78;4702776;30;20136;-70
2022/01/20 12:28:17;;;;;;;11.57;7.25;;;;;;;-3.03;83.32;98057.31;4705120;30;20056;-68
2022/01/20 12:30:48;;;;;;;13.80;7.57;;;;;;;-3.22;83.06;98044.22;4712265;30;20056;-71
2022/01/20 12:33:15;;;;;;;14.05;7.28;;;;;;;-3.34;83.21;98053.41;4706685;30;20052;-70
2022/01/20 12:35:46;;;;;;;9.30;3.85;;;;;;;-3.16;83.63;98053.56;4738097;30;20044;-69
2022/01/20 12:38:45;;;;;;;10.65;6.28;;;;;;;-3.10;83.02;98050.69;4738824;30;20062;-69
2022/01/20 12:41:17;;;;;;;15.55;7.72;;;;;;;-3.05;83.42;98043.53;4691858;30;20052;-69
2022/01/20 12:44:09;;;;;;;10.82;5.00;;;;;;;-2.94;82.49;98051.75;4707546;30;20091;-70
2022/01/20 12:46:42;;;;;;;12.85;7.13;;;;;;;-3.17;82.80;98044.03;4692443;30;20060;-69
2022/01/20 12:49:12;;;;;;;13.23;7.82;;;;;;;-3.20;82.97;98039.81;4707307;30;20044;-70
2022/01/20 12:51:49;;;;;;;12.25;7.40;;;;;;;-3.23;82.98;98039.06;4708286;30;20092;-68
2022/01/20 12:54:28;;;;;;;8.35;4.97;;;;;;;-3.06;82.61;98040.06;4704824;30;20044;-67
2022/01/20 12:56:56;;;;;;;20.40;9.88;;;;;;;-3.26;82.64;98028.78;4706751;30;20083;-67
2022/01/20 12:59:32;;;;;;;15.30;8.30;;;;;;;-3.32;82.40;98038.56;4707045;30;20833;-66
2022/01/20 13:02:06;;;;;;;14.95;8.65;;;;;;;-3.21;82.87;98017.25;4707068;30;20120;-67
2022/01/20 13:04:36;;;;;;;13.07;5.93;;;;;;;-2.95;81.88;98026.59;4706922;30;20157;-69
2022/01/20 13:07:03;;;;;;;9.50;5.88;;;;;;;-2.97;81.87;98026.66;4692958;30;20539;-67
2022/01/20 13:09:43;;;;;;;14.40;8.05;;;;;;;-3.11;82.62;98023.78;4706003;30;20544;-68
2022/01/20 13:12:10;;;;;;;14.20;7.25;;;;;;;-3.05;82.96;98017.47;4705889;30;20420;-70
2022/01/20 13:14:59;;;;;;;8.95;5.07;;;;;;;-3.06;81.77;98006.19;4707606;30;20110;-68
2022/01/20 13:17:27;;;;;;;17.00;9.10;;;;;;;-3.02;82.72;98033.81;4695465;30;20080;-67
2022/01/20 13:19:56;;;;;;;11.10;5.45;;;;;;;-3.17;82.20;98000.59;4709331;30;20781;-68
2022/01/20 13:22:41;;;;;;;17.65;9.43;;;;;;;-3.27;82.45;98006.25;4709209;30;20055;-69
2022/01/20 13:25:12;;;;;;;17.02;8.93;;;;;;;-2.83;82.66;97996.53;4705739;30;20052;-70
2022/01/20 13:28:05;;;;;;;19.63;11.23;;;;;;;-3.30;82.17;97989.84;4707113;30;20100;-68
2022/01/20 13:30:47;;;;;;;18.98;9.75;;;;;;;-3.34;82.18;97997.84;4730718;30;20071;-65
2022/01/20 13:33:38;;;;;;;15.00;7.03;;;;;;;-3.04;82.81;97987.84;4708202;30;20165;-66
2022/01/20 13:36:04;;;;;;;18.55;10.60;;;;;;;-3.16;82.28;97972.78;4708228;30;20459;-66
2022/01/20 13:38:34;;;;;;;14.35;9.52;;;;;;;-3.26;82.46;97967.09;4729230;30;20087;-71
2022/01/20 13:41:20;;;;;;;19.23;9.70;;;;;;;-3.41;82.77;97976.41;4707865;30;20071;-65
2022/01/20 13:46:34;;;;;;;15.50;7.00;;;;;;;-3.25;83.09;97967.94;4725330;30;20142;-72
2022/01/20 13:49:08;;;;;;;20.98;11.60;;;;;;;-3.39;82.96;97972.00;4708651;30;20051;-72
2022/01/20 13:51:33;;;;;;;16.67;6.20;;;;;;;-3.17;83.57;97981.50;4708669;30;20516;-70
2022/01/20 13:53:59;;;;;;;14.88;7.97;;;;;;;-3.19;83.20;97980.72;4737220;30;20626;-71
2022/01/20 13:56:24;;;;;;;21.48;11.60;;;;;;;-3.20;82.86;97982.47;4709196;30;20456;-69
2022/01/20 13:59:05;;;;;;;14.32;7.25;;;;;;;-3.16;83.45;97967.56;4729852;30;20060;-71
2022/01/20 14:01:30;;;;;;;16.13;8.70;;;;;;;-3.24;82.96;97969.63;4703790;30;20516;-70
2022/01/20 14:03:56;;;;;;;18.40;10.32;;;;;;;-3.22;83.04;97960.84;4699832;30;20060;-71
2022/01/20 14:06:21;;;;;;;14.80;9.20;;;;;;;-3.33;83.09;97965.66;4714040;30;20052;-73
2022/01/20 14:08:48;;;;;;;18.90;9.15;;;;;;;-3.44;82.89;97965.28;4714289;30;20048;-73
2022/01/20 14:11:13;;;;;;;19.58;10.98;;;;;;;-3.41;83.66;97947.75;4704887;30;20186;-74
2022/01/20 14:13:43;;;;;;;11.50;7.18;;;;;;;-3.22;82.96;97957.38;4730775;30;20092;-74
2022/01/20 14:16:08;;;;;;;19.60;10.38;;;;;;;-3.27;83.16;97951.53;4727941;30;20198;-71
2022/01/20 14:18:41;;;;;;;23.52;11.82;;;;;;;-3.33;83.10;97948.28;4708887;30;20049;-72
2022/01/20 14:21:11;;;;;;;14.88;8.07;;;;;;;-3.04;82.33;97951.34;4707927;30;20055;-72
2022/01/20 14:23:36;;;;;;;22.20;11.65;;;;;;;-3.33;82.38;97940.47;4708544;30;20059;-71
2022/01/20 14:26:02;;;;;;;13.75;8.38;;;;;;;-3.15;82.82;97943.16;4737248;30;20052;-71
2022/01/20 14:28:27;;;;;;;21.77;10.65;;;;;;;-3.37;82.22;97945.84;4707115;30;20051;-72
2022/01/20 14:30:56;;;;;;;17.88;8.90;;;;;;;-3.27;82.78;97934.13;4720592;30;20122;-73
2022/01/20 14:33:20;;;;;;;18.85;8.50;;;;;;;-3.09;83.25;97948.13;4708958;30;20048;-70
2022/01/20 14:35:45;;;;;;;14.25;8.82;;;;;;;-3.10;82.54;97936.84;4736885;30;20059;-72
2022/01/20 14:38:11;;;;;;;17.83;10.25;;;;;;;-3.17;82.20;97943.25;4709752;30;20040;-68
2022/01/20 14:40:37;;;;;;;16.55;8.45;;;;;;;-3.09;82.00;97946.38;4706951;30;20052;-71
2022/01/20 14:43:02;;;;;;;14.23;7.45;;;;;;;-3.10;82.00;97956.84;4735222;30;20098;-67
2022/01/20 14:45:27;;;;;;;19.85;8.85;;;;;;;-3.28;82.27;97944.63;4706837;30;20048;-73
2022/01/20 14:47:52;;;;;;;14.80;8.20;;;;;;;-3.24;82.38;97939.22;4723412;30;20098;-72
2022/01/20 14:50:19;;;;;;;21.13;11.98;;;;;;;-3.28;81.61;97942.03;4736765;30;20071;-67
2022/01/20 14:52:44;;;;;;;13.15;7.55;;;;;;;-3.12;82.42;97962.13;4707515;30;20047;-72
2022/01/20 14:55:09;;;;;;;21.60;11.80;;;;;;;-3.37;82.28;97941.50;4692879;30;20044;-65
2022/01/20 14:57:34;;;;;;;21.45;10.02;;;;;;;-3.23;81.98;97947.88;4706628;30;20419;-65
2022/01/20 15:00:00;;;;;;;20.58;9.07;;;;;;;-3.24;82.74;97956.59;4734608;30;20052;-66
2022/01/20 15:02:26;;;;;;;21.58;10.85;;;;;;;-3.34;82.28;97937.91;4708352;30;20468;-66
2022/01/20 15:04:54;;;;;;;22.40;9.68;;;;;;;-3.39;82.30;97943.34;4705384;30;20051;-67
2022/01/20 15:07:19;;;;;;;15.15;8.90;;;;;;;-3.11;82.01;97944.72;4719900;30;20116;-64
2022/01/20 15:09:45;;;;;;;22.27;13.60;;;;;;;-3.38;82.05;97942.41;4706095;30;20527;-65
2022/01/20 15:12:11;;;;;;;26.55;10.95;;;;;;;-3.41;81.74;97946.91;4707351;30;20055;-64
2022/01/20 15:14:38;;;;;;;17.33;8.48;;;;;;;-3.31;82.16;97945.59;4727201;30;20132;-62
2022/01/20 15:17:03;;;;;;;20.10;11.25;;;;;;;-3.21;82.41;97943.44;4705245;30;20044;-63
2022/01/20 15:19:35;;;;;;;18.35;9.85;;;;;;;-3.15;82.50;97946.63;4706287;30;20048;-62
2022/01/20 15:22:01;;;;;;;18.42;8.95;;;;;;;-3.07;81.68;97947.16;4708297;30;20416;-62
2022/01/20 15:24:30;;;;;;;25.38;12.00;;;;;;;-3.33;81.95;97953.47;4707294;30;20052;-63
2022/01/20 15:26:56;;;;;;;15.13;9.18;;;;;;;-3.37;81.84;97948.47;4708106;30;20056;-62
2022/01/20 15:29:22;;;;;;;26.33;13.27;;;;;;;-3.32;82.00;97941.31;4726520;30;20109;-62
2022/01/20 15:31:46;;;;;;;17.75;9.57;;;;;;;-3.15;81.80;97958.81;4705481;30;20068;-62
2022/01/20 15:34:13;;;;;;;27.65;12.27;;;;;;;-3.34;82.15;97938.75;4707515;30;20448;-62
2022/01/20 15:36:39;;;;;;;21.83;12.75;;;;;;;-3.24;81.40;97961.81;4709618;30;20047;-62
2022/01/20 15:39:07;;;;;;;20.50;8.13;;;;;;;-3.20;82.08;97956.41;4709318;30;20052;-63
2022/01/20 15:41:33;;;;;;;16.90;9.27;;;;;;;-3.11;82.01;97952.56;4709360;30;20055;-62
2022/01/20 15:43:58;;;;;;;20.98;9.85;;;;;;;-3.22;81.31;97941.75;4709616;30;20049;-63
2022/01/20 15:46:24;;;;;;;14.10;7.03;;;;;;;-3.26;81.15;97942.78;4710581;30;20036;-62
2022/01/20 15:48:49;;;;;;;18.70;9.80;;;;;;;-3.22;81.99;97932.19;4709361;30;20097;-63
2022/01/20 15:51:15;;;;;;;20.52;11.27;;;;;;;-3.02;81.37;97933.91;4710454;30;20045;-62
2022/01/20 15:53:41;;;;;;;24.83;10.77;;;;;;;-3.00;81.71;97927.72;4709941;30;20059;-62
2022/01/20 15:56:06;;;;;;;20.65;11.52;;;;;;;-3.02;81.56;97939.97;4729857;30;20135;-61
2022/01/20 15:58:33;;;;;;;12.75;6.82;;;;;;;-2.99;81.67;97928.56;4731450;30;20054;-62
2022/01/20 16:00:58;;;;;;;18.30;9.55;;;;;;;-3.03;81.61;97929.59;4707352;30;20490;-63
2022/01/20 16:03:23;;;;;;;14.10;7.78;;;;;;;-2.96;82.24;97923.22;4739795;30;20469;-62
2022/01/20 16:05:48;;;;;;;15.10;7.40;;;;;;;-2.96;82.31;97942.31;4743035;30;20365;-63
2022/01/20 16:08:14;;;;;;;21.98;12.18;;;;;;;-2.99;80.89;97936.38;4710294;30;20102;-63
2022/01/20 16:10:43;;;;;;;15.63;6.88;;;;;;;-2.82;81.47;97930.41;4711814;30;20044;-63
2022/01/20 16:13:08;;;;;;;10.73;6.13;;;;;;;-2.81;80.74;97938.16;4739362;30;20071;-62
2022/01/20 16:15:35;;;;;;;16.70;8.35;;;;;;;-2.92;80.65;97923.00;4709389;30;20055;-63
2022/01/20 16:18:01;;;;;;;23.75;11.45;;;;;;;-3.08;81.13;97935.03;4710479;30;20048;-62
2022/01/20 16:20:26;;;;;;;13.27;7.78;;;;;;;-2.92;81.42;97928.19;4709299;30;20048;-63
2022/01/20 16:22:52;;;;;;;21.15;11.82;;;;;;;-3.10;81.74;97921.22;4722146;30;20135;-64
2022/01/20 16:25:19;;;;;;;25.45;15.82;;;;;;;-3.31;81.16;97928.22;4709081;30;20052;-63
2022/01/20 16:27:44;;;;;;;18.48;7.63;;;;;;;-2.92;81.97;97924.75;4710359;30;20071;-62
2022/01/20 16:30:10;;;;;;;12.93;6.85;;;;;;;-2.91;81.91;97923.84;4710531;30;20070;-70
2022/01/20 16:32:37;;;;;;;22.02;11.45;;;;;;;-3.03;82.14;97932.19;4718869;30;20148;-65
2022/01/20 16:35:05;;;;;;;17.30;8.80;;;;;;;-2.84;81.08;97912.22;4739369;30;20044;-65
2022/01/20 16:37:30;;;;;;;25.92;13.25;;;;;;;-2.97;81.26;97924.13;4718154;30;20096;-65
2022/01/20 16:39:56;;;;;;;16.70;8.95;;;;;;;-2.98;81.45;97931.09;4718139;30;20056;-64
2022/01/20 16:42:21;;;;;;;17.58;9.13;;;;;;;-2.91;81.30;97934.25;4731932;30;20074;-64
2022/01/20 16:44:46;;;;;;;12.18;5.55;;;;;;;-2.95;81.08;97924.91;4718200;30;20052;-63
2022/01/20 16:47:12;;;;;;;19.85;11.30;;;;;;;-2.99;81.67;97921.59;4716560;30;20051;-63
2022/01/20 16:49:36;;;;;;;18.95;9.75;;;;;;;-2.89;81.71;97929.84;4706833;30;20048;-64
2022/01/20 16:52:04;;;;;;;17.52;8.90;;;;;;;-2.94;81.73;97922.25;4718552;30;20044;-67
2022/01/20 16:54:30;;;;;;;17.80;9.18;;;;;;;-2.84;82.57;97919.22;4731993;30;20097;-65
2022/01/20 16:56:55;;;;;;;20.80;10.85;;;;;;;-2.91;81.77;97916.00;4718495;30;20056;-63
2022/01/20 16:59:20;;;;;;;21.67;11.80;;;;;;;-3.03;82.36;97912.19;4718505;30;20059;-64
2022/01/20 17:01:45;;;;;;;29.40;14.63;;;;;;;-3.08;81.36;97921.16;4718863;30;20056;-65
2022/01/20 17:04:11;;;;;;;28.80;13.73;;;;;;;-3.00;81.95;97911.22;4718520;30;20056;-65
2022/01/20 17:06:36;;;;;;;25.38;14.80;;;;;;;-3.03;81.99;97912.19;4718443;30;20044;-64
2022/01/20 17:09:02;;;;;;;16.25;8.45;;;;;;;-3.01;81.61;97914.75;4718199;30;20415;-63
2022/01/20 17:11:27;;;;;;;19.77;9.45;;;;;;;-2.92;82.17;97912.56;4718060;30;20055;-64
2022/01/20 17:13:52;;;;;;;29.88;12.35;;;;;;;-2.96;81.25;97911.03;4731744;30;20098;-64
2022/01/20 17:16:17;;;;;;;13.50;7.15;;;;;;;-2.88;81.28;97915.88;4718262;30;20119;-65
2022/01/20 17:18:42;;;;;;;15.82;8.15;;;;;;;-2.98;81.68;97912.00;4718240;30;20059;-63
2022/01/20 17:21:07;;;;;;;20.23;9.82;;;;;;;-2.92;81.84;97906.50;4717224;30;20496;-66
2022/01/20 17:23:33;;;;;;;11.48;6.35;;;;;;;-2.79;82.27;97910.25;4718149;30;20127;-67
2022/01/20 17:26:00;;;;;;;20.52;11.05;;;;;;;-3.02;81.58;97908.69;4702518;30;20075;-64
2022/01/20 17:28:29;;;;;;;24.17;10.13;;;;;;;-2.97;81.29;97905.88;4716890;30;20055;-62
2022/01/20 17:30:54;;;;;;;21.77;10.88;;;;;;;-2.99;81.45;97907.69;4718100;30;20079;-64
2022/01/20 17:33:21;;;;;;;20.15;10.43;;;;;;;-2.92;81.49;97903.88;4732122;30;20044;-63
2022/01/20 17:35:52;;;;;;;32.92;12.45;;;;;;;-2.86;81.81;97903.63;4718208;30;20082;-63
2022/01/20 17:38:20;;;;;;;20.58;9.52;;;;;;;-2.71;81.76;97917.75;4702343;30;20047;-65
2022/01/20 17:40:47;;;;;;;16.95;8.95;;;;;;;-2.54;81.29;97896.06;4724191;30;20124;-63
2022/01/20 17:43:13;;;;;;;17.38;10.45;;;;;;;-2.48;81.18;97925.31;4727917;30;20048;-64
2022/01/20 17:45:40;;;;;;;12.80;7.78;;;;;;;-2.51;80.39;97898.56;4728795;30;20056;-64
2022/01/20 17:48:30;;;;;;;14.57;8.00;;;;;;;-2.52;80.59;97886.41;4728428;30;20052;-63
2022/01/20 17:50:58;;;;;;;11.95;6.97;;;;;;;-2.58;80.52;97898.81;4728103;30;20071;-67
2022/01/20 17:53:30;;;;;;;24.95;12.48;;;;;;;-2.68;80.48;97894.09;4726830;30;20519;-65
2022/01/20 17:56:22;;;;;;;12.27;7.25;;;;;;;-2.57;80.38;97884.88;4734643;30;20115;-63
2022/01/20 17:58:48;;;;;;;15.07;7.53;;;;;;;-2.71;80.51;97882.03;4717853;30;20063;-63
2022/01/20 18:01:14;;;;;;;15.88;8.77;;;;;;;-2.70;80.73;97886.34;4731371;30;20078;-64
2022/01/20 18:03:39;;;;;;;30.95;11.98;;;;;;;-2.68;80.92;97881.06;4717797;30;20055;-64
2022/01/20 18:06:04;;;;;;;26.27;14.65;;;;;;;-2.83;80.41;97889.63;4716755;30;20067;-63
2022/01/20 18:08:30;;;;;;;16.95;9.55;;;;;;;-2.84;80.64;97893.97;4716624;30;20055;-62
2022/01/20 18:10:55;;;;;;;27.13;12.23;;;;;;;-2.76;81.04;97904.91;4731172;30;20040;-64
2022/01/20 18:13:22;;;;;;;24.00;9.95;;;;;;;-2.96;81.04;97891.94;4715948;30;20051;-63
2022/01/20 18:16:12;;;;;;;17.08;9.43;;;;;;;-3.01;81.05;97880.84;4717339;30;20412;-63
2022/01/20 18:18:41;;;;;;;13.00;7.47;;;;;;;-2.73;81.46;97878.69;4717029;30;20104;-65
2022/01/20 18:21:07;;;;;;;26.48;11.35;;;;;;;-2.67;81.27;97877.53;4717211;30;20048;-64
2022/01/20 18:23:33;;;;;;;24.95;11.55;;;;;;;-2.69;81.03;97884.59;4717473;30;20059;-63
2022/01/20 18:26:04;;;;;;;21.23;8.07;;;;;;;-2.82;81.07;97886.09;4717218;30;20424;-65
2022/01/20 18:28:35;;;;;;;23.80;12.80;;;;;;;-2.94;80.94;97870.09;4716418;30;20047;-64
2022/01/20 18:31:04;;;;;;;12.40;7.50;;;;;;;-2.70;81.76;97893.31;4717275;30;20060;-63
2022/01/20 18:33:35;;;;;;;19.98;9.55;;;;;;;-2.63;81.33;97879.94;4716939;30;20056;-64
2022/01/20 18:36:28;;;;;;;22.85;11.32;;;;;;;-2.77;81.42;97882.34;4714592;30;20055;-64
2022/01/20 18:38:53;;;;;;;21.88;10.35;;;;;;;-2.78;81.84;97883.25;4716724;30;20051;-64
2022/01/20 18:41:18;;;;;;;14.13;8.02;;;;;;;-2.74;81.90;97892.63;4716497;30;20078;-64
2022/01/20 18:43:49;;;;;;;15.82;7.45;;;;;;;-2.67;81.93;97890.59;4719549;30;20064;-63
2022/01/20 18:46:15;;;;;;;22.15;9.30;;;;;;;-2.76;82.13;97873.59;4732354;30;20055;-63
2022/01/20 18:48:41;;;;;;;30.50;14.15;;;;;;;-2.86;82.04;97864.53;4731927;30;20579;-63
2022/01/20 18:51:06;;;;;;;27.10;15.18;;;;;;;-3.01;82.08;97868.66;4732480;30;20451;-65
2022/01/20 18:53:34;;;;;;;18.77;8.98;;;;;;;-2.77;81.93;97864.09;4731850;30;20115;-72
2022/01/20 18:56:04;;;;;;;19.73;8.75;;;;;;;-2.88;82.64;97866.34;4706261;30;20051;-67
2022/01/20 18:58:30;;;;;;;22.58;12.38;;;;;;;-2.87;82.75;97864.59;4732455;30;20150;-65
2022/01/20 19:00:55;;;;;;;25.88;14.27;;;;;;;-3.03;82.74;97857.47;4732220;30;20300;-65
2022/01/20 19:03:27;;;;;;;10.73;6.70;;;;;;;-2.86;83.09;97856.69;4715788;30;20098;-66
2022/01/20 19:05:54;;;;;;;23.05;12.98;;;;;;;-2.94;83.37;97851.00;4717169;30;20050;-67
2022/01/20 19:08:19;;;;;;;26.45;13.73;;;;;;;-3.02;83.75;97851.31;4731681;30;20051;-67
2022/01/20 19:10:44;;;;;;;25.85;12.43;;;;;;;-2.91;83.69;97856.06;4731717;30;20239;-69
2022/01/20 19:13:10;;;;;;;22.85;11.02;;;;;;;-2.96;83.47;97850.22;4731865;30;20058;-65
2022/01/20 19:15:36;;;;;;;24.98;14.00;;;;;;;-3.11;83.66;97854.34;4714870;30;20063;-67
2022/01/20 19:18:06;;;;;;;24.80;12.75;;;;;;;-2.97;83.80;97849.38;4716395;30;20052;-67
2022/01/20 19:20:32;;;;;;;26.27;16.10;;;;;;;-3.13;83.69;97857.94;4730007;30;20905;-67
2022/01/20 19:23:00;;;;;;;27.70;16.90;;;;;;;-3.08;83.14;97840.34;4716197;30;20397;-68
2022/01/20 19:25:26;;;;;;;21.75;12.45;;;;;;;-3.17;83.83;97854.66;4716329;30;20158;-69
2022/01/20 19:27:52;;;;;;;24.23;13.65;;;;;;;-3.18;83.90;97859.94;4729895;30;20075;-65
2022/01/20 19:30:43;;;;;;;29.63;13.48;;;;;;;-3.26;84.29;97839.41;4711489;30;20057;-71
2022/01/20 19:33:11;;;;;;;23.05;12.15;;;;;;;-3.17;85.47;97844.22;4714335;30;20064;-67
2022/01/20 19:36:02;;;;;;;21.40;11.45;;;;;;;-3.04;85.75;97847.94;4716780;30;20110;-66
2022/01/20 19:38:28;;;;;;;22.63;11.38;;;;;;;-3.09;85.90;97843.88;4716497;30;20575;-71
2022/01/20 19:40:53;;;;;;;12.50;7.30;;;;;;;-2.95;86.04;97847.53;4715168;30;20048;-70
2022/01/20 19:43:18;;;;;;;26.27;14.23;;;;;;;-3.07;85.90;97837.69;4716628;30;20389;-71